ULU weather

Gulu Airport
Gulu, Northern Region, Uganda

Public forecast

Using degrees Celsius for public forecast. Weather courtesy of forecast.io.

Current aviation weather report (METAR) for Gulu Airport

Report is more than 6 hours old.

Retrieved 2016/02/22 12:00 UTC (4 years ago):

HUGU 221200Z 36004KT 9999 FEW026 BKN300 35/10

Closest aviation forecast (TAF) to Gulu Airport

Forecast is more than 12 hours old.

Closest forecast is Torit Airport, 97.5 nm (180.6 km) N. Retrieved 2015/03/08 06:00 UTC (5 years ago):

TAF HSTR 080400Z 0806/0912 18005G15KT 9999 SCT040 BKN140 TEMPO 0815/0821 18008G18KT 6000 TSRA FEW045CB TEMPO 0821/0824 VRB03KT 9999 SCT040 BKN140